Time;durP1;ratioP1;P1;durP2;ratioP2;P2;SDS_P1;SDS_P2;PMS_P1;PMS_P2;Temp;Humidity;BMP_temperature;BMP_pressure;BME280_temperature;BME280_humidity;BME280_pressure;Samples;Min_cycle;Max_cycle;Signal;HPM_P1;HPM_P2
2022/04/01 00:01:41;;;;;;;22.20;9.90;;;10.10;99.90;;;;;;5111308;28;20530;-72
2022/04/01 00:04:45;;;;;;;18.27;9.18;;;10.00;99.90;;;;;;5111636;28;20047;-72
2022/04/01 00:07:49;;;;;;;21.55;8.82;;;9.80;99.90;;;;;;5110983;28;20058;-73
2022/04/01 00:10:53;;;;;;;23.00;9.40;;;10.00;99.90;;;;;;5111066;28;20046;-72
2022/04/01 00:13:56;;;;;;;17.77;8.50;;;10.00;99.90;;;;;;5111218;28;20054;-73
2022/04/01 00:17:01;;;;;;;19.80;8.93;;;10.00;99.90;;;;;;5110548;28;20039;-73
2022/04/01 00:20:05;;;;;;;26.90;8.75;;;10.00;99.90;;;;;;5111365;28;20474;-73
2022/04/01 00:23:12;;;;;;;16.77;8.40;;;10.00;99.90;;;;;;5110849;28;20039;-72
2022/04/01 00:26:16;;;;;;;28.20;9.10;;;10.00;99.90;;;;;;5110955;28;20039;-73
2022/04/01 00:29:20;;;;;;;26.30;12.25;;;10.00;99.90;;;;;;5114196;28;20047;-73
2022/04/01 00:32:24;;;;;;;29.88;15.07;;;10.00;99.90;;;;;;5114715;28;20043;-72
2022/04/01 00:35:31;;;;;;;19.38;9.50;;;10.00;99.90;;;;;;5115076;28;20390;-73
2022/04/01 00:38:34;;;;;;;28.88;8.90;;;10.00;99.90;;;;;;5114954;28;20042;-73
2022/04/01 00:41:39;;;;;;;31.13;11.73;;;10.00;99.90;;;;;;5114864;28;20043;-73
2022/04/01 00:44:44;;;;;;;26.13;9.73;;;9.90;99.90;;;;;;5114713;28;20058;-73
2022/04/01 00:47:47;;;;;;;24.75;8.27;;;9.90;99.90;;;;;;5114177;28;20039;-73
2022/04/01 00:50:52;;;;;;;21.10;9.18;;;10.00;99.90;;;;;;5115092;28;20062;-73
2022/04/01 00:53:58;;;;;;;20.75;7.25;;;10.00;99.90;;;;;;5115009;28;20063;-73
2022/04/01 00:57:08;;;;;;;19.08;8.30;;;10.10;99.90;;;;;;5113659;28;20058;-73
2022/04/01 01:00:13;;;;;;;12.88;6.07;;;10.10;99.90;;;;;;5114250;28;20485;-73
2022/04/01 01:03:17;;;;;;;15.13;6.68;;;10.10;99.90;;;;;;5114555;28;20055;-73
2022/04/01 01:06:22;;;;;;;13.82;5.95;;;10.20;99.90;;;;;;5114468;28;20050;-73
2022/04/01 01:09:27;;;;;;;14.27;5.60;;;10.20;99.90;;;;;;5114667;28;20042;-72
2022/04/01 01:12:31;;;;;;;25.25;6.60;;;10.30;99.90;;;;;;5113527;28;20386;-73
2022/04/01 01:15:37;;;;;;;21.77;6.15;;;10.20;99.90;;;;;;5114824;28;20054;-72
2022/04/01 01:18:42;;;;;;;12.13;4.82;;;10.20;99.90;;;;;;5113349;28;20395;-74
2022/04/01 01:21:49;;;;;;;16.30;5.72;;;10.20;99.90;;;;;;5113941;28;20047;-73
2022/04/01 01:24:55;;;;;;;14.55;5.65;;;10.20;99.90;;;;;;5114811;28;20051;-73
2022/04/01 01:28:00;;;;;;;13.23;6.28;;;10.10;99.90;;;;;;5112949;28;20058;-73
2022/04/01 01:31:05;;;;;;;9.00;5.28;;;10.10;99.90;;;;;;5101398;28;20051;-72
2022/04/01 01:34:09;;;;;;;10.48;5.32;;;10.10;99.90;;;;;;5114176;28;20051;-73
2022/04/01 01:37:13;;;;;;;15.50;5.45;;;10.00;99.90;;;;;;5113504;28;20046;-72
2022/04/01 01:40:17;;;;;;;11.48;4.90;;;10.10;99.90;;;;;;5112878;28;20042;-72
2022/04/01 01:43:21;;;;;;;11.68;4.90;;;10.10;99.90;;;;;;5113566;28;20039;-72
2022/04/01 01:46:26;;;;;;;18.13;5.32;;;10.10;99.90;;;;;;5112486;28;20465;-73
2022/04/01 01:49:31;;;;;;;13.88;5.25;;;10.10;99.90;;;;;;5113108;28;20062;-73
2022/04/01 01:55:57;;;;;;;12.98;5.53;;;10.00;99.90;;;;;;5113439;28;20050;-73
2022/04/01 01:59:02;;;;;;;12.75;5.18;;;9.90;99.90;;;;;;5112244;28;20047;-73
2022/04/01 02:02:07;;;;;;;14.70;4.60;;;10.00;99.90;;;;;;5112261;28;20068;-72
2022/04/01 02:05:11;;;;;;;15.23;5.00;;;9.90;99.90;;;;;;5113294;28;20043;-73
2022/04/01 02:08:15;;;;;;;15.18;5.28;;;9.90;99.90;;;;;;5112690;28;20047;-73
2022/04/01 02:11:22;;;;;;;13.52;5.03;;;9.90;99.90;;;;;;5113194;28;20477;-73
2022/04/01 02:14:28;;;;;;;18.55;9.57;;;9.80;99.90;;;;;;5112112;28;20046;-73
2022/04/01 02:17:33;;;;;;;13.60;4.72;;;9.80;99.90;;;;;;5111610;28;20113;-73
2022/04/01 02:20:37;;;;;;;13.70;4.32;;;9.80;99.90;;;;;;5113087;28;20043;-73
2022/04/01 02:23:47;;;;;;;15.13;5.00;;;9.70;99.90;;;;;;5100169;28;20043;-73
2022/04/01 02:26:53;;;;;;;10.82;4.15;;;9.70;99.90;;;;;;5111597;28;20398;-73
2022/04/01 02:29:58;;;;;;;15.93;4.90;;;9.70;99.90;;;;;;5088772;28;20050;-73
2022/04/01 02:33:25;;;;;;;13.77;4.32;;;9.70;99.90;;;;;;5112433;28;20039;-73
2022/04/01 02:36:38;;;;;;;12.77;4.20;;;9.70;99.90;;;;;;5111372;28;20397;-72
2022/04/01 02:39:43;;;;;;;11.93;4.32;;;9.70;99.90;;;;;;5112700;28;20280;-73
2022/04/01 02:42:53;;;;;;;13.15;4.72;;;9.60;99.90;;;;;;5111640;28;20047;-73
2022/04/01 02:45:58;;;;;;;9.50;4.55;;;9.60;99.90;;;;;;5111892;28;20046;-73
2022/04/01 02:49:06;;;;;;;12.13;4.05;;;9.70;99.90;;;;;;5112719;28;20042;-73
2022/04/01 02:52:30;;;;;;;11.07;4.97;;;9.70;99.90;;;;;;5112306;28;20428;-73
2022/04/01 02:55:36;;;;;;;13.88;4.43;;;9.50;99.90;;;;;;5111833;28;20410;-73
2022/04/01 02:58:41;;;;;;;18.08;8.30;;;9.50;99.90;;;;;;5112371;28;20047;-73
2022/04/01 03:01:45;;;;;;;22.20;7.55;;;9.40;99.90;;;;;;5111684;28;20042;-73
2022/04/01 03:04:50;;;;;;;12.25;5.45;;;9.40;99.90;;;;;;5111062;28;20125;-73
2022/04/01 03:07:54;;;;;;;12.05;5.85;;;9.30;99.90;;;;;;5110735;28;20035;-73
2022/04/01 03:10:58;;;;;;;10.27;6.00;;;9.20;99.90;;;;;;5111102;28;20058;-73
2022/04/01 03:14:06;;;;;;;13.75;5.82;;;9.10;99.90;;;;;;5110827;28;20484;-73
2022/04/01 03:17:31;;;;;;;14.85;5.10;;;9.20;99.90;;;;;;5111621;28;20054;-73
2022/04/01 03:20:35;;;;;;;8.40;4.10;;;9.10;99.90;;;;;;5111081;28;20062;-73
2022/04/01 03:23:43;;;;;;;9.40;4.57;;;9.10;99.90;;;;;;5110919;28;20050;-73
2022/04/01 03:26:50;;;;;;;11.10;3.92;;;9.00;99.90;;;;;;5110774;28;20054;-73
2022/04/01 03:29:57;;;;;;;13.85;5.28;;;8.90;99.90;;;;;;5111131;28;20058;-73
2022/04/01 03:33:02;;;;;;;14.57;5.78;;;8.90;99.90;;;;;;5111015;28;20161;-74
2022/04/01 03:36:05;;;;;;;14.48;5.88;;;8.90;99.90;;;;;;5110677;28;20054;-74
2022/04/01 03:39:13;;;;;;;10.30;5.57;;;8.60;99.90;;;;;;5110606;28;20046;-73
2022/04/01 03:42:31;;;;;;;16.77;7.13;;;8.50;99.90;;;;;;5110771;28;20665;-74
2022/04/01 03:45:36;;;;;;;14.77;6.18;;;8.40;99.90;;;;;;5110409;28;20051;-74
2022/04/01 03:49:07;;;;;;;12.10;6.25;;;8.40;99.90;;;;;;5110880;28;20046;-73
2022/04/01 03:52:14;;;;;;;18.83;6.53;;;8.30;99.90;;;;;;5108828;28;20039;-73
2022/04/01 03:55:20;;;;;;;21.90;5.95;;;8.30;99.90;;;;;;5110535;28;20039;-73
2022/04/01 03:58:47;;;;;;;13.13;6.22;;;8.40;99.90;;;;;;5095699;28;20042;-73
2022/04/01 04:02:14;;;;;;;16.65;6.28;;;8.50;99.90;;;;;;5111329;28;20051;-73
2022/04/01 04:05:21;;;;;;;21.83;7.93;;;8.60;99.90;;;;;;5114695;28;20046;-73
2022/04/01 04:08:27;;;;;;;11.75;5.88;;;8.80;99.90;;;;;;5114849;28;20341;-74
2022/04/01 04:11:34;;;;;;;14.75;7.13;;;8.90;99.90;;;;;;5114562;28;20047;-74
2022/04/01 04:14:58;;;;;;;14.40;6.10;;;8.80;99.90;;;;;;5114647;28;20042;-74
2022/04/01 04:18:04;;;;;;;15.07;7.63;;;8.80;99.90;;;;;;5115060;28;20481;-74
2022/04/01 04:21:16;;;;;;;15.57;5.50;;;8.80;99.90;;;;;;5114546;28;20043;-73
2022/04/01 04:24:35;;;;;;;13.13;5.60;;;8.80;99.90;;;;;;5114371;28;20042;-74
2022/04/01 04:28:00;;;;;;;11.80;6.22;;;8.70;99.90;;;;;;5114136;28;20043;-74
2022/04/01 04:31:09;;;;;;;16.15;6.32;;;8.60;99.90;;;;;;5114849;28;20050;-74
2022/04/01 04:34:27;;;;;;;12.93;6.15;;;8.50;99.90;;;;;;5113965;28;20054;-73
2022/04/01 04:37:37;;;;;;;15.10;7.00;;;8.20;99.90;;;;;;5113563;28;20046;-74
2022/04/01 04:40:42;;;;;;;12.63;7.25;;;8.10;99.90;;;;;;5114064;28;20058;-74
2022/04/01 04:43:50;;;;;;;16.48;6.75;;;8.00;99.90;;;;;;5114605;28;20038;-73
2022/04/01 04:46:56;;;;;;;15.93;7.30;;;8.00;99.90;;;;;;5113454;28;20063;-73
2022/04/01 04:50:02;;;;;;;19.15;7.95;;;7.90;99.90;;;;;;5113736;28;20062;-73
2022/04/01 04:53:13;;;;;;;17.63;7.93;;;7.80;99.90;;;;;;5113525;28;20046;-74
2022/04/01 04:56:21;;;;;;;18.88;7.82;;;7.70;99.90;;;;;;5113170;28;20047;-73
2022/04/01 04:59:27;;;;;;;19.83;8.63;;;7.70;99.90;;;;;;5113573;28;20046;-73
2022/04/01 05:02:42;;;;;;;17.02;8.02;;;7.70;99.90;;;;;;5113467;28;20039;-73
2022/04/01 05:05:53;;;;;;;16.35;8.82;;;7.70;99.90;;;;;;5113356;28;20662;-74
2022/04/01 05:09:34;;;;;;;15.15;7.78;;;7.70;99.90;;;;;;5114786;28;20061;-74
2022/04/01 05:13:36;;;;;;;17.13;8.02;;;7.70;99.90;;;;;;5113510;28;20059;-73
2022/04/01 05:16:53;;;;;;;24.85;8.75;;;7.70;99.90;;;;;;5111920;28;20050;-73
2022/04/01 05:20:02;;;;;;;15.35;8.00;;;7.70;99.90;;;;;;5113276;28;20055;-73
2022/04/01 05:23:14;;;;;;;19.50;7.38;;;7.70;99.90;;;;;;5113305;28;20043;-73
2022/04/01 05:26:38;;;;;;;11.95;7.30;;;7.80;99.90;;;;;;5112718;28;20043;-74
2022/04/01 05:30:01;;;;;;;13.85;6.90;;;8.00;99.90;;;;;;5114422;28;20050;-74
2022/04/01 05:33:17;;;;;;;12.50;7.40;;;8.00;99.90;;;;;;5113191;28;20058;-73
2022/04/01 05:36:24;;;;;;;19.08;8.00;;;8.00;99.90;;;;;;5091963;28;20048;-74
2022/04/01 05:39:29;;;;;;;17.17;7.93;;;8.00;99.90;;;;;;5092907;28;20051;-74
2022/04/01 05:42:38;;;;;;;16.15;7.47;;;8.00;99.90;;;;;;5092544;28;20485;-73
2022/04/01 05:46:03;;;;;;;18.27;8.20;;;7.90;99.90;;;;;;5092836;28;20043;-73
2022/04/01 05:49:09;;;;;;;11.00;6.65;;;8.10;99.90;;;;;;5092058;28;20054;-74
2022/04/01 05:52:13;;;;;;;17.90;6.72;;;8.20;99.90;;;;;;5092228;28;20043;-73
2022/04/01 05:55:25;;;;;;;18.17;6.13;;;8.60;99.90;;;;;;5092146;28;20054;-73
2022/04/01 05:58:30;;;;;;;19.73;6.78;;;8.70;99.90;;;;;;5091697;28;20051;-73
2022/04/01 06:01:54;;;;;;;15.50;8.45;;;8.60;99.90;;;;;;5084690;28;20042;-73
2022/04/01 06:05:15;;;;;;;16.05;6.97;;;8.50;99.90;;;;;;5120063;27;21901;-73
2022/04/01 06:08:44;;;;;;;14.57;7.75;;;8.50;99.90;;;;;;5103258;28;20059;-73
2022/04/01 06:12:08;;;;;;;13.23;7.90;;;8.70;99.90;;;;;;5096381;28;20520;-74
2022/04/01 06:16:13;;;;;;;9.95;6.38;;;9.10;99.90;;;;;;5104431;28;20050;-73
2022/04/01 06:19:47;;;;;;;28.75;9.05;;;9.80;99.90;;;;;;5102135;28;20414;-73
2022/04/01 06:23:33;;;;;;;16.13;7.43;;;9.70;99.90;;;;;;5107604;28;20114;-73
2022/04/01 06:26:47;;;;;;;23.45;11.65;;;9.50;99.90;;;;;;5093298;28;20034;-73
2022/04/01 06:30:08;;;;;;;19.95;10.82;;;9.30;99.90;;;;;;5103233;28;20050;-73
2022/04/01 06:33:41;;;;;;;17.83;9.82;;;9.20;99.90;;;;;;5080046;28;20036;-73
2022/04/01 06:37:08;;;;;;;11.98;7.60;;;9.30;99.90;;;;;;5098830;28;20043;-73
2022/04/01 06:40:21;;;;;;;11.48;6.65;;;9.40;99.90;;;;;;5109966;28;20051;-73
2022/04/01 06:43:27;;;;;;;14.88;7.30;;;9.50;99.90;;;;;;5103380;28;20034;-73
2022/04/01 06:47:03;;;;;;;14.10;6.53;;;9.50;99.90;;;;;;5089793;27;20051;-73
2022/04/01 06:50:09;;;;;;;15.07;6.85;;;9.40;99.90;;;;;;5107066;28;20051;-73
2022/04/01 06:53:23;;;;;;;14.02;7.45;;;9.50;99.90;;;;;;5102701;28;20046;-73
2022/04/01 06:56:45;;;;;;;12.00;5.97;;;10.60;99.90;;;;;;5101556;28;20046;-73
2022/04/01 06:59:51;;;;;;;11.95;5.72;;;12.40;99.90;;;;;;5104636;28;20052;-73
2022/04/01 07:02:57;;;;;;;12.88;4.63;;;12.80;99.90;;;;;;5110168;28;20034;-74
2022/04/01 07:06:02;;;;;;;12.82;4.93;;;13.10;99.90;;;;;;5107348;28;20034;-73
2022/04/01 07:09:07;;;;;;;11.05;4.93;;;13.30;99.90;;;;;;5102379;28;20043;-73
2022/04/01 07:12:11;;;;;;;12.10;5.50;;;13.00;99.90;;;;;;5105730;28;20038;-74
2022/04/01 07:15:16;;;;;;;11.00;4.55;;;12.70;99.90;;;;;;5106147;28;20534;-74
2022/04/01 07:18:21;;;;;;;11.23;5.18;;;12.30;99.90;;;;;;5098453;28;20422;-73
2022/04/01 07:21:26;;;;;;;14.55;4.70;;;12.60;99.90;;;;;;5107653;28;20043;-73
2022/04/01 07:24:32;;;;;;;13.35;4.78;;;13.60;99.90;;;;;;5103912;28;20039;-73
2022/04/01 07:27:36;;;;;;;9.20;4.70;;;14.20;99.90;;;;;;5102916;28;20038;-73
2022/04/01 07:30:40;;;;;;;13.48;5.43;;;14.80;99.90;;;;;;5100002;28;20047;-73
2022/04/01 07:33:44;;;;;;;12.05;5.20;;;14.30;99.90;;;;;;5103583;28;20405;-73
2022/04/01 07:36:49;;;;;;;11.88;5.88;;;13.70;99.90;;;;;;5107880;28;20059;-73
2022/04/01 07:39:56;;;;;;;13.82;5.22;;;13.20;99.90;;;;;;5099349;28;20035;-73
2022/04/01 07:43:00;;;;;;;14.20;5.75;;;12.60;99.90;;;;;;5102713;28;20038;-74
2022/04/01 07:46:04;;;;;;;13.10;5.70;;;12.30;99.90;;;;;;5101008;28;20043;-74
2022/04/01 07:49:08;;;;;;;14.90;6.43;;;12.20;99.90;;;;;;5106057;28;20050;-74
2022/04/01 07:52:14;;;;;;;13.65;6.10;;;12.10;99.90;;;;;;5108310;28;20050;-73
2022/04/01 07:55:18;;;;;;;12.18;5.35;;;12.20;99.90;;;;;;5103711;28;20050;-73
2022/04/01 07:58:22;;;;;;;14.38;5.30;;;11.50;99.90;;;;;;5101324;28;20047;-73
2022/04/01 08:01:26;;;;;;;14.48;6.13;;;11.70;99.90;;;;;;5105858;28;20046;-74
2022/04/01 08:04:32;;;;;;;23.20;6.13;;;11.80;99.90;;;;;;5100916;28;20074;-74
2022/04/01 08:07:37;;;;;;;18.88;5.30;;;11.30;99.90;;;;;;5098154;28;20032;-73
2022/04/01 08:10:42;;;;;;;14.43;5.28;;;11.30;99.90;;;;;;5101486;28;20043;-73
2022/04/01 08:13:46;;;;;;;16.70;5.10;;;12.70;99.90;;;;;;5103661;28;20039;-73
2022/04/01 08:16:50;;;;;;;9.82;4.57;;;13.60;99.90;;;;;;5107171;28;20043;-74
2022/04/01 08:19:54;;;;;;;15.65;5.10;;;13.90;99.90;;;;;;5088452;28;20043;-73
2022/04/01 08:22:58;;;;;;;18.33;5.50;;;12.90;99.90;;;;;;5100549;28;20038;-73
2022/04/01 08:26:03;;;;;;;10.65;4.22;;;12.80;99.90;;;;;;5106280;28;20042;-73
2022/04/01 08:29:07;;;;;;;15.00;5.35;;;13.30;99.90;;;;;;5101153;28;20394;-73
2022/04/01 08:32:11;;;;;;;17.80;5.35;;;13.70;99.90;;;;;;5102515;28;20051;-73
2022/04/01 08:35:18;;;;;;;17.13;5.22;;;14.20;99.90;;;;;;5101994;28;20067;-74
2022/04/01 08:38:23;;;;;;;18.83;6.13;;;13.90;99.90;;;;;;5103776;28;20062;-73
2022/04/01 08:41:28;;;;;;;14.80;5.03;;;13.80;99.90;;;;;;5102529;28;20039;-73
2022/04/01 08:44:36;;;;;;;15.38;4.45;;;14.70;99.90;;;;;;5109902;28;20043;-65
2022/04/01 08:47:40;;;;;;;19.20;5.18;;;16.90;99.90;;;;;;5100987;28;20375;-65
2022/04/01 08:50:45;;;;;;;11.65;4.63;;;19.40;99.90;;;;;;5106730;28;20046;-65
2022/04/01 08:53:49;;;;;;;14.48;4.60;;;22.90;99.90;;;;;;5101580;28;20049;-64
2022/04/01 08:56:53;;;;;;;12.05;4.72;;;21.30;95.80;;;;;;5110558;28;20066;-74
2022/04/01 09:00:00;;;;;;;13.38;4.75;;;20.30;96.00;;;;;;5105707;28;20042;-73
2022/04/01 09:03:08;;;;;;;16.95;4.78;;;20.00;99.90;;;;;;5102874;28;20035;-74
2022/04/01 09:06:12;;;;;;;15.23;4.60;;;21.60;96.40;;;;;;5105592;28;20030;-65
2022/04/01 09:09:24;;;;;;;15.88;4.72;;;22.60;96.20;;;;;;5110909;28;20043;-65
2022/04/01 09:12:29;;;;;;;15.35;6.22;;;21.50;95.80;;;;;;5110515;28;20043;-65
2022/04/01 09:15:41;;;;;;;18.02;5.07;;;20.30;98.50;;;;;;5109298;28;20437;-73
2022/04/01 09:19:10;;;;;;;17.45;5.22;;;18.50;98.40;;;;;;5108460;28;20485;-64
2022/04/01 09:22:22;;;;;;;10.75;3.72;;;20.10;97.60;;;;;;5109172;28;20026;-65
2022/04/01 09:25:27;;;;;;;13.38;4.50;;;20.40;97.60;;;;;;5110092;28;20473;-73
2022/04/01 09:28:42;;;;;;;15.85;4.10;;;19.60;97.40;;;;;;5110623;28;20485;-64
2022/04/01 09:31:52;;;;;;;22.77;5.40;;;18.90;98.90;;;;;;5104360;28;20043;-64
2022/04/01 09:35:00;;;;;;;19.63;4.60;;;18.40;99.90;;;;;;5102828;28;20043;-65
2022/04/01 09:38:04;;;;;;;16.75;4.32;;;17.40;99.90;;;;;;5103548;28;20042;-73
2022/04/01 09:41:09;;;;;;;20.13;6.03;;;17.40;99.70;;;;;;5108744;28;20047;-73
2022/04/01 09:44:21;;;;;;;18.95;6.15;;;16.30;99.90;;;;;;5107779;28;20039;-73
2022/04/01 09:47:25;;;;;;;18.60;4.90;;;15.80;99.90;;;;;;5106425;28;20034;-73
2022/04/01 09:50:32;;;;;;;17.35;4.88;;;17.10;99.90;;;;;;5106214;28;20508;-74
2022/04/01 09:53:36;;;;;;;19.08;4.93;;;17.70;99.00;;;;;;5105251;28;20046;-73
2022/04/01 09:56:47;;;;;;;12.05;4.07;;;20.40;98.60;;;;;;5106898;28;20651;-65
2022/04/01 09:59:52;;;;;;;20.65;5.38;;;22.60;96.70;;;;;;5109524;28;20050;-65
2022/04/01 10:02:56;;;;;;;13.82;4.18;;;22.10;92.10;;;;;;5099641;28;20031;-63
2022/04/01 10:06:01;;;;;;;15.25;4.22;;;19.80;95.30;;;;;;5107646;28;20058;-65
2022/04/01 10:09:10;;;;;;;20.33;4.95;;;18.00;97.30;;;;;;5107172;28;20051;-64
2022/04/01 10:12:18;;;;;;;17.90;4.68;;;18.60;97.10;;;;;;5109202;28;20058;-65
2022/04/01 10:15:23;;;;;;;14.95;4.30;;;16.40;96.80;;;;;;5108390;28;20059;-65
2022/04/01 10:18:28;;;;;;;11.70;4.53;;;15.70;98.30;;;;;;5104500;28;20070;-64
2022/04/01 10:21:34;;;;;;;15.60;4.50;;;15.00;99.30;;;;;;5104756;28;20035;-63
2022/04/01 10:24:47;;;;;;;16.40;4.25;;;15.70;98.40;;;;;;5109559;28;20453;-64
2022/04/01 10:27:53;;;;;;;15.15;4.28;;;17.20;97.40;;;;;;5106508;28;20489;-64
2022/04/01 10:30:59;;;;;;;14.82;3.80;;;20.00;97.00;;;;;;5107486;28;20035;-64
2022/04/01 10:34:24;;;;;;;12.45;4.47;;;21.40;93.80;;;;;;5108783;28;20043;-65
2022/04/01 10:37:31;;;;;;;16.58;4.57;;;20.30;94.80;;;;;;5106523;28;20062;-64
2022/04/01 10:40:38;;;;;;;19.17;4.80;;;20.70;95.50;;;;;;5100117;28;20047;-64
2022/04/01 10:43:44;;;;;;;20.98;5.30;;;20.80;95.90;;;;;;5104069;28;20046;-65
2022/04/01 10:46:58;;;;;;;17.75;4.80;;;20.90;95.90;;;;;;5106923;28;20051;-64
2022/04/01 10:54:01;;;;;;;13.45;4.57;;;20.10;94.00;;;;;;5041615;28;20047;-64
2022/04/01 10:57:07;;;;;;;15.93;4.55;;;17.70;97.40;;;;;;5103422;28;20494;-65
2022/04/01 11:00:15;;;;;;;18.33;4.30;;;17.40;99.00;;;;;;5100478;28;20043;-64
2022/04/01 11:03:23;;;;;;;14.13;4.20;;;17.50;98.10;;;;;;5099229;28;20034;-65
2022/04/01 11:06:28;;;;;;;14.70;5.13;;;17.90;97.90;;;;;;5105604;28;20043;-64
2022/04/01 11:09:47;;;;;;;12.98;4.70;;;17.30;97.70;;;;;;5103163;28;20043;-64
2022/04/01 11:12:52;;;;;;;13.75;4.03;;;15.30;99.20;;;;;;5100143;28;20389;-64
2022/04/01 11:16:25;;;;;;;12.40;4.38;;;14.30;99.00;;;;;;5102865;28;20051;-64
2022/04/01 11:19:29;;;;;;;17.80;5.25;;;14.70;99.90;;;;;;5100750;28;20042;-64
2022/04/01 11:22:45;;;;;;;16.42;4.05;;;14.60;99.90;;;;;;5103066;28;20043;-64
2022/04/01 11:25:54;;;;;;;14.65;4.40;;;14.20;99.90;;;;;;5101853;28;20042;-64
2022/04/01 11:29:01;;;;;;;11.85;4.25;;;13.90;99.90;;;;;;5111555;28;20377;-63
2022/04/01 11:32:09;;;;;;;11.20;3.70;;;13.70;99.90;;;;;;5107115;28;20059;-64
2022/04/01 11:35:15;;;;;;;20.33;4.53;;;13.80;99.90;;;;;;5111136;28;20034;-64
2022/04/01 11:38:29;;;;;;;15.32;5.10;;;14.00;99.90;;;;;;5108171;28;20039;-63
2022/04/01 11:41:54;;;;;;;20.38;4.78;;;13.90;99.90;;;;;;5106510;28;20055;-64
2022/04/01 11:44:59;;;;;;;20.38;4.55;;;13.40;99.90;;;;;;5105703;28;20055;-73
2022/04/01 11:48:26;;;;;;;16.90;4.45;;;13.50;99.90;;;;;;5102325;28;20473;-72
2022/04/01 11:51:30;;;;;;;14.77;4.65;;;14.20;99.90;;;;;;5107888;28;20402;-73
2022/04/01 11:54:35;;;;;;;19.80;4.20;;;15.10;99.90;;;;;;5106460;28;20039;-73
2022/04/01 11:57:40;;;;;;;17.92;5.10;;;14.70;99.90;;;;;;5108183;28;20038;-74
2022/04/01 12:00:45;;;;;;;18.70;5.05;;;13.80;99.90;;;;;;5105166;28;20046;-73
2022/04/01 12:03:50;;;;;;;21.50;5.10;;;13.40;99.90;;;;;;5106884;28;20046;-73
2022/04/01 12:10:29;;;;;;;;;;;12.90;99.90;;;;;;5101590;28;20054;-73
2022/04/01 12:13:33;;;;;;;45.40;7.20;;;12.50;99.90;;;;;;5105676;28;19908;-73
2022/04/01 12:16:43;;;;;;;26.77;6.05;;;12.20;99.90;;;;;;5108336;28;20051;-74
2022/04/01 12:19:49;;;;;;;26.20;5.65;;;12.30;99.90;;;;;;5107321;28;20047;-73
2022/04/01 12:22:53;;;;;;;26.80;5.57;;;12.00;99.90;;;;;;5109985;28;20034;-73
2022/04/01 12:25:59;;;;;;;20.70;5.47;;;12.00;99.90;;;;;;5104297;28;20050;-73
2022/04/01 12:29:18;;;;;;;17.10;5.25;;;11.90;99.90;;;;;;5110018;28;20047;-73
2022/04/01 12:32:24;;;;;;;21.23;5.07;;;12.00;99.90;;;;;;5107292;28;20062;-73
2022/04/01 12:35:28;;;;;;;16.75;5.18;;;11.90;99.90;;;;;;5109781;28;20031;-73
2022/04/01 12:38:40;;;;;;;15.88;5.00;;;11.80;99.90;;;;;;5106989;28;20054;-72
2022/04/01 12:42:12;;;;;;;23.08;4.97;;;11.90;99.90;;;;;;5112055;28;20498;-73
2022/04/01 12:45:16;;;;;;;17.75;4.63;;;12.10;99.90;;;;;;5099720;28;20035;-73
2022/04/01 12:48:24;;;;;;;23.13;6.13;;;12.40;99.90;;;;;;5100146;28;20043;-73
2022/04/01 12:51:34;;;;;;;18.15;6.45;;;12.50;99.90;;;;;;5108300;28;20059;-73
2022/04/01 12:54:47;;;;;;;18.23;5.63;;;12.80;99.90;;;;;;5102901;28;20047;-73
2022/04/01 12:57:51;;;;;;;21.52;5.07;;;13.10;99.90;;;;;;5104191;28;20039;-73
2022/04/01 13:01:09;;;;;;;23.85;6.07;;;13.30;99.90;;;;;;5108414;28;20345;-73
2022/04/01 13:04:18;;;;;;;49.42;7.43;;;13.00;99.90;;;;;;5104108;28;20051;-73
2022/04/01 13:07:29;;;;;;;15.85;5.15;;;13.10;99.90;;;;;;5110570;28;20050;-73
2022/04/01 13:10:34;;;;;;;24.35;5.00;;;13.80;99.90;;;;;;5104788;28;20771;-73
2022/04/01 13:13:37;;;;;;;14.43;4.53;;;14.10;99.90;;;;;;5102960;28;20042;-73
2022/04/01 13:16:43;;;;;;;16.90;4.40;;;14.90;99.90;;;;;;5111680;28;20046;-73
2022/04/01 13:19:47;;;;;;;16.75;4.70;;;16.00;99.90;;;;;;5112849;28;20062;-72
2022/04/01 13:22:52;;;;;;;19.20;5.20;;;16.90;99.90;;;;;;5112729;28;20129;-74
2022/04/01 13:25:56;;;;;;;16.85;4.72;;;16.80;99.90;;;;;;5112282;28;20485;-74
2022/04/01 13:28:59;;;;;;;19.75;4.30;;;15.20;99.90;;;;;;5110939;28;20043;-74
2022/04/01 13:32:05;;;;;;;14.65;3.90;;;14.90;99.90;;;;;;5111058;28;20054;-74
2022/04/01 13:35:09;;;;;;;16.25;3.80;;;16.70;99.90;;;;;;5112186;28;20047;-74
2022/04/01 13:38:14;;;;;;;13.10;3.35;;;17.70;99.70;;;;;;5111197;28;20046;-72
2022/04/01 13:41:18;;;;;;;12.82;3.10;;;18.70;99.90;;;;;;5112583;28;20054;-75
2022/04/01 13:44:21;;;;;;;12.23;3.40;;;17.80;97.40;;;;;;5113564;28;20043;-74
2022/04/01 13:47:26;;;;;;;9.90;3.15;;;17.90;99.90;;;;;;5109396;28;20047;-74
2022/04/01 13:50:30;;;;;;;14.55;2.60;;;18.50;97.60;;;;;;5103981;28;20050;-74
2022/04/01 13:53:34;;;;;;;9.60;2.83;;;18.70;99.00;;;;;;5113307;28;20046;-74
2022/04/01 13:56:39;;;;;;;9.30;3.00;;;17.90;98.70;;;;;;5113153;28;20080;-74
2022/04/01 13:59:44;;;;;;;11.50;2.15;;;19.80;96.80;;;;;;5111475;28;20046;-75
2022/04/01 14:02:48;;;;;;;9.48;2.55;;;18.30;94.70;;;;;;5102752;28;20051;-74
2022/04/01 14:05:53;;;;;;;12.60;3.28;;;16.10;96.40;;;;;;5109531;28;20065;-73
2022/04/01 14:09:04;;;;;;;15.65;3.13;;;17.20;97.80;;;;;;5110069;28;20474;-74
2022/04/01 14:12:09;;;;;;;7.97;2.28;;;19.40;98.00;;;;;;5111421;28;20082;-74
2022/04/01 14:15:13;;;;;;;12.95;2.67;;;20.30;93.80;;;;;;5112323;28;20039;-74
2022/04/01 14:18:18;;;;;;;10.35;2.90;;;20.40;93.80;;;;;;5111179;28;20042;-74
2022/04/01 14:21:21;;;;;;;11.90;2.30;;;20.50;94.40;;;;;;5110890;28;20047;-74
2022/04/01 14:24:25;;;;;;;13.55;2.08;;;20.30;94.00;;;;;;5111607;28;20054;-74
2022/04/01 14:27:30;;;;;;;9.68;2.13;;;19.90;93.20;;;;;;5102678;28;20474;-74
2022/04/01 14:30:34;;;;;;;13.10;2.45;;;19.20;93.30;;;;;;5108316;28;20379;-74
2022/04/01 14:33:38;;;;;;;10.98;3.17;;;19.30;93.70;;;;;;5103498;28;20050;-74
2022/04/01 14:36:42;;;;;;;5.28;1.85;;;18.40;94.30;;;;;;5104020;28;20038;-74
2022/04/01 14:39:46;;;;;;;7.30;1.90;;;18.00;93.00;;;;;;5103570;28;20035;-75
2022/04/01 14:42:51;;;;;;;9.95;2.47;;;17.00;93.90;;;;;;5109305;28;20034;-76
2022/04/01 14:45:55;;;;;;;12.70;3.35;;;15.00;94.90;;;;;;5111738;28;20386;-74
2022/04/01 14:49:00;;;;;;;13.73;2.60;;;15.00;95.90;;;;;;5100355;28;20042;-74
2022/04/01 14:52:05;;;;;;;11.98;2.50;;;15.40;95.90;;;;;;5107196;28;20054;-74
2022/04/01 14:55:10;;;;;;;17.65;2.70;;;16.30;98.30;;;;;;5108323;28;20413;-74
2022/04/01 14:58:15;;;;;;;11.68;2.65;;;16.90;97.00;;;;;;5104368;28;20039;-74
2022/04/01 15:01:19;;;;;;;11.90;2.53;;;17.10;97.00;;;;;;5109059;28;20074;-74
2022/04/01 15:04:26;;;;;;;10.77;2.80;;;17.50;96.30;;;;;;5095709;28;20042;-73
2022/04/01 15:07:30;;;;;;;14.65;3.08;;;17.70;97.00;;;;;;5103674;28;20038;-74
2022/04/01 15:10:34;;;;;;;8.10;2.33;;;17.50;98.20;;;;;;5095572;28;20042;-74
2022/04/01 15:13:38;;;;;;;8.18;2.50;;;17.10;97.10;;;;;;5105433;28;20050;-75
2022/04/01 15:16:42;;;;;;;8.77;2.15;;;16.90;97.30;;;;;;5107293;28;20051;-74
2022/04/01 15:19:46;;;;;;;8.38;1.75;;;16.80;95.80;;;;;;5110253;28;20043;-74
2022/04/01 15:22:52;;;;;;;8.75;1.85;;;16.80;95.50;;;;;;5096389;28;20043;-74
2022/04/01 15:25:57;;;;;;;12.93;2.55;;;16.80;94.80;;;;;;5108018;28;20039;-73
2022/04/01 15:29:01;;;;;;;12.10;2.47;;;16.90;94.30;;;;;;5096925;28;20046;-73
2022/04/01 15:32:08;;;;;;;10.13;1.98;;;16.70;94.70;;;;;;5111036;28;20059;-73
2022/04/01 15:35:13;;;;;;;9.13;2.08;;;16.70;95.60;;;;;;5110817;28;20422;-73
2022/04/01 15:38:26;;;;;;;10.55;3.15;;;16.50;95.50;;;;;;5108843;28;20469;-74
2022/04/01 15:41:30;;;;;;;12.95;2.45;;;16.20;95.20;;;;;;5109716;28;20035;-74
2022/04/01 15:44:35;;;;;;;12.40;2.50;;;15.80;96.40;;;;;;5095925;28;20039;-74
2022/04/01 15:47:42;;;;;;;13.23;2.85;;;15.70;96.20;;;;;;5109387;28;20050;-73
2022/04/01 15:50:45;;;;;;;14.27;2.80;;;15.50;97.50;;;;;;5109726;28;20042;-74
2022/04/01 15:53:51;;;;;;;17.13;3.75;;;15.00;98.20;;;;;;5110637;28;20034;-74
2022/04/01 15:56:56;;;;;;;13.75;2.58;;;14.60;98.50;;;;;;5106938;28;20060;-73
2022/04/01 16:00:00;;;;;;;20.48;3.17;;;14.10;99.50;;;;;;5106619;28;20501;-74
2022/04/01 16:03:12;;;;;;;17.40;3.53;;;13.70;99.90;;;;;;5103113;28;20047;-74
2022/04/01 16:06:17;;;;;;;10.90;3.27;;;13.30;99.90;;;;;;5107325;28;20645;-73
2022/04/01 16:09:27;;;;;;;16.55;3.22;;;13.10;99.90;;;;;;5103791;28;20398;-73
2022/04/01 16:12:33;;;;;;;18.70;3.67;;;12.80;99.90;;;;;;5109555;28;20039;-74
2022/04/01 16:15:41;;;;;;;20.20;3.45;;;12.50;99.90;;;;;;5108734;28;20074;-74
2022/04/01 16:18:49;;;;;;;16.00;3.40;;;12.40;99.90;;;;;;5107580;28;20038;-74
2022/04/01 16:21:54;;;;;;;19.92;3.45;;;12.30;99.90;;;;;;5103623;28;20039;-74
2022/04/01 16:25:00;;;;;;;19.50;4.13;;;12.40;99.90;;;;;;5109801;28;20054;-73